MROCMPTO

Guest
Details From MROC - San Jose Juan Santamaria Intl
To MPTO - Tocumen Intl
Flight Number -
Tags decoded
Created
Modified
Stats Distance 293 nm / 542 km
Max Altitude 0 ft / 0 m
Waypoints 4
Social Downloads 2
Likes 0
Share VATSIM

Download

Looking for another format? Having issues loading an existing format? Contact us
Advertisement - Login to hide

Notes

Requested: MROC BUFEO UA317 BITOR MPTO

Route

MROC BUFEO UA317 BITOR MPTO

ID Type Via Altitude Latitude Longitude Leg Dist Tot Dist Heading (true) Name
O MROC APT - 0 ft / 0 m 9.99393˚ -84.20888˚ - 0 nm - San Jose Juan Santamaria Intl
BUFEO FIX - 0 ft / 0 m 9.81667˚ -82.55000˚ 98 nm 98 nm 96° / 96° -
BITOR FIX UA317 (AWY-HI) 0 ft / 0 m 9.26667˚ -81.00000˚ 97 nm 196 nm 110° / 110° -
O MPTO APT - 0 ft / 0 m 9.07136˚ -79.38346˚ 96 nm 292 nm 97° / 97° Tocumen Intl

Altitude Profile

Advertisement - Login to hide

Weather


0- 5 10 15 20 25 30 35+ Temperature / ° C

Clouds and Precipitation
Forecast for 2017-12-17 12:00 UTC. Updated an hour ago

Ground ~20,000 ft ~40,000 ft Winds

MROC

Details ICAO MROC (SJO)
Name San Jose Juan Santamaria Intl
Region Costa Rica
Timezone America/Costa_Rica (UTC-6.0)
Stats Elevation 3,021 ft / 921 m (AMSL)
Location 9.993927° -84.208884°
Runways 1
Magnetic Variation 1.720° W

METAR

MROC 171000Z 10012KT CAVOK 20/13 A2995 NOSIG

Decode

TAF

MROC 162300Z 1700/1724 09012KT 9999 SCT040 TX29/1719Z TN19/1709Z TEMPO 1700/1724 09015G25KT

Decode

Departure Runways

ID Width Length Bearing (true) Bearing (mag) Surface Threshold Offset Overrun Length
07 151 ft / 46 m 9,994 ft / 3,046 m 68.91° 70.63° Asphalt 0 ft / 0 m 200 ft / 61 m
25 151 ft / 46 m 9,994 ft / 3,046 m 248.92° 250.64° Asphalt 1,969 ft / 600 m 200 ft / 61 m

MPTO

Details ICAO MPTO (PTY)
Name Tocumen Intl
Region Panama
Timezone America/Panama (UTC-5.0)
Stats Elevation 135 ft / 41 m (AMSL)
Location 9.071364° -79.383458°
Runways 2
Magnetic Variation 4.532° W

METAR

MPTO 171000Z 00000KT 9999 FEW020 21/21 Q1009 NOSIG

Decode

TAF

Not found

Destination Runways

ID Width Length Bearing (true) Bearing (mag) Surface Threshold Offset Overrun Length
03L 200 ft / 61 m 8,798 ft / 2,682 m 30.67° 35.20° Asphalt 0 ft / 0 m 0 ft / 0 m
03R 148 ft / 45 m 10,008 ft / 3,051 m 29.33° 33.86° Concrete 0 ft / 0 m 198 ft / 60 m
21L 148 ft / 45 m 10,008 ft / 3,051 m 209.33° 213.86° Concrete 0 ft / 0 m 198 ft / 60 m
21R 200 ft / 61 m 8,798 ft / 2,682 m 210.67° 215.20° Asphalt 0 ft / 0 m 0 ft / 0 m

Approach Navaids

Runway Type Ident Frequency Range Bearing (true) Bearing (mag) Slope Elevation
03R Localiser INAT 110.70 MHz 18 nm / 33 km 29.33° 33.86° - 50 ft / 15 m (AMSL)
03R Glidescope INAT 110.70 MHz 10 nm / 19 km 29.33° 33.86° 3.00° 50 ft / 15 m (AMSL)
03R DME INAT 110.70 MHz 18 nm / 33 km - - - 50 ft / 15 m (AMSL)

Popular Alternatives